createdAt,value
2018-10-18T00:01:55.398Z,84.04
2018-10-18T00:04:23.655Z,82.78
2018-10-18T00:06:51.971Z,82.66
2018-10-18T00:09:20.236Z,82.46
2018-10-18T00:11:48.512Z,82.46
2018-10-18T00:14:16.983Z,83.22
2018-10-18T00:16:45.137Z,83.23
2018-10-18T00:19:13.424Z,83.70
2018-10-18T00:21:41.731Z,83.04
2018-10-18T00:24:10.067Z,82.90
2018-10-18T00:26:38.283Z,82.97
2018-10-18T00:29:06.547Z,82.89
2018-10-18T00:31:34.831Z,83.06
2018-10-18T00:34:03.095Z,82.92
2018-10-18T00:36:31.406Z,83.55
2018-10-18T00:39:00.395Z,84.43
2018-10-18T00:41:28.682Z,83.66
2018-10-18T00:43:56.981Z,83.57
2018-10-18T00:46:25.276Z,83.90
2018-10-18T00:48:53.548Z,84.03
2018-10-18T00:51:21.963Z,83.88
2018-10-18T00:53:50.239Z,84.15
2018-10-18T00:56:18.500Z,84.83
2018-10-18T00:58:46.785Z,83.85
2018-10-18T01:01:15.043Z,84.88
2018-10-18T01:03:43.680Z,84.98
2018-10-18T01:06:12.059Z,84.90
2018-10-18T01:08:40.891Z,84.60
2018-10-18T01:11:09.170Z,84.98
2018-10-18T01:13:37.611Z,85.52
2018-10-18T01:16:06.079Z,85.35
2018-10-18T01:18:34.368Z,84.56
2018-10-18T01:21:02.651Z,85.11
2018-10-18T01:23:30.940Z,83.92
2018-10-18T01:25:59.570Z,84.06
2018-10-18T01:28:27.815Z,84.22
2018-10-18T01:30:56.087Z,82.62
2018-10-18T01:33:24.379Z,83.75
2018-10-18T01:35:52.672Z,84.18
2018-10-18T01:38:20.991Z,83.75
2018-10-18T01:40:49.275Z,83.96
2018-10-18T01:43:17.723Z,83.40
2018-10-18T01:45:45.999Z,84.53
2018-10-18T01:48:14.321Z,84.77
2018-10-18T01:50:42.611Z,84.20
2018-10-18T01:53:10.903Z,85.25
2018-10-18T01:55:39.176Z,84.97
2018-10-18T01:58:07.468Z,85.71
2018-10-18T02:00:36.466Z,84.73
2018-10-18T02:03:04.797Z,84.08
2018-10-18T02:05:33.051Z,84.67
2018-10-18T02:08:01.390Z,84.59
2018-10-18T02:10:29.636Z,84.76
2018-10-18T02:12:57.921Z,85.10
2018-10-18T02:15:26.215Z,84.79
2018-10-18T02:17:54.534Z,84.55
2018-10-18T02:20:22.794Z,85.12
2018-10-18T02:22:51.063Z,86.50
2018-10-18T02:25:19.443Z,86.17
2018-10-18T02:27:47.635Z,86.57
2018-10-18T02:30:16.062Z,85.39
2018-10-18T02:32:44.201Z,85.26
2018-10-18T02:35:12.702Z,85.53
2018-10-18T02:37:41.369Z,85.41
2018-10-18T02:40:09.707Z,85.50
2018-10-18T02:42:37.978Z,85.72
2018-10-18T02:45:06.318Z,86.60
2018-10-18T02:47:34.593Z,85.93
2018-10-18T02:50:02.876Z,86.04
2018-10-18T02:52:34.138Z,86.43
2018-10-18T02:55:02.435Z,85.68
2018-10-18T02:57:30.707Z,85.13
2018-10-18T02:59:58.994Z,86.56
2018-10-18T03:02:27.282Z,86.49
2018-10-18T03:04:55.563Z,86.81
2018-10-18T03:07:23.839Z,87.92
2018-10-18T03:09:52.125Z,88.03
2018-10-18T03:12:20.472Z,87.75
2018-10-18T03:14:48.694Z,87.09
2018-10-18T03:17:16.960Z,87.59
2018-10-18T03:19:45.428Z,86.85
2018-10-18T03:22:13.679Z,86.18
2018-10-18T03:24:41.972Z,86.37
2018-10-18T03:27:10.244Z,85.98
2018-10-18T03:29:38.544Z,85.65
2018-10-18T03:32:06.827Z,85.77
2018-10-18T03:34:35.104Z,85.88
2018-10-18T03:37:03.389Z,84.71
2018-10-18T03:39:31.671Z,84.25
2018-10-18T03:41:59.952Z,84.41
2018-10-18T03:44:28.681Z,84.19
2018-10-18T03:46:56.952Z,83.94
2018-10-18T03:49:25.293Z,83.78
2018-10-18T03:51:53.576Z,83.45
2018-10-18T03:54:21.844Z,84.03
2018-10-18T03:56:50.123Z,87.49
2018-10-18T03:59:18.408Z,84.85
2018-10-18T04:01:46.684Z,83.48
2018-10-18T04:04:14.960Z,83.76
2018-10-18T04:06:43.240Z,84.35
2018-10-18T04:09:11.515Z,83.52
2018-10-18T04:11:40.783Z,84.20
2018-10-18T04:14:09.159Z,84.61
2018-10-18T04:16:37.460Z,85.46
2018-10-18T04:19:06.052Z,86.50
2018-10-18T04:21:34.333Z,85.43
2018-10-18T04:24:02.681Z,85.69
2018-10-18T04:26:30.894Z,88.29
2018-10-18T04:28:59.181Z,87.51
2018-10-18T04:31:28.182Z,87.46
2018-10-18T04:33:56.451Z,89.98
2018-10-18T04:36:24.752Z,91.41
2018-10-18T04:38:53.040Z,91.48
2018-10-18T04:41:21.355Z,92.19
2018-10-18T04:43:49.639Z,92.34
2018-10-18T04:46:17.943Z,92.54
2018-10-18T04:48:46.214Z,92.60
2018-10-18T04:51:14.536Z,92.53
2018-10-18T04:53:42.806Z,92.27
2018-10-18T04:56:11.112Z,92.68
2018-10-18T04:58:39.402Z,92.77
2018-10-18T05:01:07.768Z,92.56
2018-10-18T05:03:36.008Z,92.58
2018-10-18T05:06:05.687Z,92.53
2018-10-18T05:08:33.951Z,92.72
2018-10-18T05:11:02.227Z,93.05
2018-10-18T05:13:30.519Z,93.17
2018-10-18T05:15:58.807Z,93.42
2018-10-18T05:18:27.133Z,94.00
2018-10-18T05:20:55.407Z,94.05
2018-10-18T05:23:23.699Z,93.75
2018-10-18T05:25:52.155Z,93.77
2018-10-18T05:28:20.742Z,94.41
2018-10-18T05:30:49.462Z,94.22
2018-10-18T05:33:17.758Z,94.41
2018-10-18T05:35:46.024Z,94.64
2018-10-18T05:38:14.879Z,94.22
2018-10-18T05:40:43.157Z,94.15
2018-10-18T05:43:11.538Z,94.71
2018-10-18T05:45:39.760Z,94.54
2018-10-18T05:48:08.191Z,94.53
2018-10-18T05:50:36.824Z,94.45
2018-10-18T05:53:05.782Z,94.70
2018-10-18T05:55:36.736Z,94.80
2018-10-18T05:58:05.054Z,94.47
2018-10-18T06:00:33.343Z,94.33
2018-10-18T06:03:01.628Z,94.58
2018-10-18T06:05:29.880Z,95.16
2018-10-18T06:07:58.259Z,94.92
2018-10-18T06:10:37.875Z,94.57
2018-10-18T06:13:06.139Z,94.82
2018-10-18T06:15:34.403Z,94.67
2018-10-18T06:18:02.720Z,94.43
2018-10-18T06:20:30.983Z,94.30
2018-10-18T06:22:59.429Z,93.77
2018-10-18T06:25:27.579Z,93.95
2018-10-18T06:27:55.874Z,93.75
2018-10-18T06:30:24.373Z,93.76
2018-10-18T06:32:52.724Z,93.46
2018-10-18T06:35:20.963Z,93.82
2018-10-18T06:37:49.255Z,93.73
2018-10-18T06:40:18.269Z,93.60
2018-10-18T06:42:46.739Z,93.07
2018-10-18T06:45:16.643Z,91.78
2018-10-18T06:47:45.267Z,92.39
2018-10-18T06:50:15.786Z,92.46
2018-10-18T06:52:44.098Z,92.25
2018-10-18T06:55:12.570Z,92.03
2018-10-18T06:57:41.764Z,92.39
2018-10-18T07:00:16.093Z,92.59
2018-10-18T07:02:44.803Z,92.05
2018-10-18T07:05:14.184Z,91.81
2018-10-18T07:07:42.935Z,92.02
2018-10-18T07:10:11.224Z,92.05
2018-10-18T07:12:39.991Z,91.62
2018-10-18T07:15:09.255Z,91.96
2018-10-18T07:17:38.479Z,91.96
2018-10-18T07:20:07.434Z,92.23
2018-10-18T07:22:36.199Z,91.93
2018-10-18T07:25:05.215Z,91.88
2018-10-18T07:27:33.503Z,91.57
2018-10-18T07:30:01.814Z,91.55
2018-10-18T07:32:30.089Z,91.73
2018-10-18T07:34:58.409Z,91.99
2018-10-18T07:37:26.699Z,92.43
2018-10-18T07:39:55.016Z,92.11
2018-10-18T07:42:23.335Z,91.57
2018-10-18T07:44:51.615Z,91.73
2018-10-18T07:47:20.059Z,92.09
2018-10-18T07:49:48.868Z,91.89
2018-10-18T07:52:17.131Z,91.55
2018-10-18T07:54:45.464Z,91.66
2018-10-18T07:57:13.783Z,91.34
2018-10-18T07:59:42.059Z,91.45
2018-10-18T08:02:10.343Z,91.57
2018-10-18T08:04:38.644Z,91.82
2018-10-18T08:07:06.947Z,91.36
2018-10-18T08:09:35.212Z,91.25
2018-10-18T08:12:03.499Z,91.40
2018-10-18T08:14:31.800Z,91.64
2018-10-18T08:17:00.096Z,91.41
2018-10-18T08:19:28.384Z,90.35
2018-10-18T08:21:56.664Z,89.67
2018-10-18T08:24:24.960Z,89.38
2018-10-18T08:26:53.226Z,88.53
2018-10-18T08:29:21.686Z,87.76
2018-10-18T08:31:50.015Z,87.60
2018-10-18T08:34:18.255Z,87.69
2018-10-18T08:36:46.523Z,87.36
2018-10-18T08:39:14.827Z,86.31
2018-10-18T08:41:44.171Z,86.52
2018-10-18T08:44:12.505Z,86.54
2018-10-18T08:46:40.767Z,87.94
2018-10-18T08:49:09.633Z,88.38
2018-10-18T08:51:37.828Z,88.58
2018-10-18T08:54:06.180Z,87.41
2018-10-18T08:56:34.519Z,86.68
2018-10-18T08:59:02.808Z,86.23
2018-10-18T09:01:31.111Z,85.77
2018-10-18T09:03:59.379Z,86.43
2018-10-18T09:06:27.848Z,85.41
2018-10-18T09:08:56.136Z,85.60
2018-10-18T09:11:24.439Z,83.66
2018-10-18T09:13:52.720Z,84.02
2018-10-18T09:16:21.035Z,83.83
2018-10-18T09:18:49.311Z,82.62
2018-10-18T09:21:17.601Z,82.68
2018-10-18T09:23:46.247Z,81.54
2018-10-18T09:26:14.542Z,82.04
2018-10-18T09:28:42.824Z,80.66
2018-10-18T09:31:11.202Z,80.63
2018-10-18T09:33:39.419Z,78.88
2018-10-18T09:36:07.696Z,77.24
2018-10-18T09:38:35.971Z,77.28
2018-10-18T09:41:04.290Z,77.19
2018-10-18T09:43:32.555Z,76.46
2018-10-18T09:46:00.855Z,76.17
2018-10-18T09:48:29.495Z,77.24
2018-10-18T09:50:57.790Z,76.79
2018-10-18T09:53:26.378Z,75.31
2018-10-18T09:55:54.694Z,75.08
2018-10-18T09:58:22.963Z,73.30
2018-10-18T10:00:57.389Z,71.48
2018-10-18T10:03:26.227Z,67.94
2018-10-18T10:05:54.498Z,67.00
2018-10-18T10:08:22.770Z,65.41
2018-10-18T10:10:51.063Z,66.64
2018-10-18T10:13:19.494Z,64.99
2018-10-18T10:15:47.664Z,61.37
2018-10-18T10:18:16.014Z,61.82
2018-10-18T10:20:44.287Z,61.17
2018-10-18T10:23:12.580Z,60.89
2018-10-18T10:25:40.864Z,60.70
2018-10-18T10:28:09.188Z,58.86
2018-10-18T10:30:37.461Z,59.72
2018-10-18T10:33:05.962Z,58.68
2018-10-18T10:35:34.234Z,54.72
2018-10-18T10:38:02.518Z,52.30
2018-10-18T10:40:30.807Z,51.34
2018-10-18T10:42:59.189Z,51.22
2018-10-18T10:45:27.724Z,51.89
2018-10-18T10:47:56.014Z,52.66
2018-10-18T10:50:24.298Z,55.84
2018-10-18T10:52:52.594Z,57.21
2018-10-18T10:55:20.867Z,57.64
2018-10-18T10:57:49.160Z,58.26
2018-10-18T11:00:33.238Z,57.21
2018-10-18T11:03:01.591Z,58.34
2018-10-18T11:05:29.820Z,60.85
2018-10-18T11:07:58.135Z,62.91
2018-10-18T11:10:26.406Z,62.92
2018-10-18T11:12:54.718Z,63.56
2018-10-18T11:15:22.999Z,63.21
2018-10-18T11:17:51.296Z,63.07
2018-10-18T11:20:19.711Z,65.49
2018-10-18T11:22:48.007Z,65.07
2018-10-18T11:25:16.675Z,66.36
2018-10-18T11:27:44.979Z,65.37
2018-10-18T11:30:13.386Z,65.61
2018-10-18T11:32:41.577Z,63.58
2018-10-18T11:35:09.847Z,63.32
2018-10-18T11:37:38.168Z,64.47
2018-10-18T11:40:07.004Z,64.15
2018-10-18T11:42:35.383Z,64.96
2018-10-18T11:45:03.628Z,64.75
2018-10-18T11:47:31.939Z,65.40
2018-10-18T11:50:00.247Z,65.25
2018-10-18T11:52:28.523Z,67.14
2018-10-18T11:54:56.808Z,67.61
2018-10-18T11:57:25.100Z,67.71
2018-10-18T11:59:53.386Z,67.62
2018-10-18T12:02:21.710Z,67.08
2018-10-18T12:04:49.979Z,67.38
2018-10-18T12:07:18.263Z,67.20
2018-10-18T12:09:46.555Z,67.69
2018-10-18T12:12:15.251Z,67.79
2018-10-18T12:14:43.528Z,67.52
2018-10-18T12:17:11.902Z,68.55
2018-10-18T12:19:40.119Z,68.37
2018-10-18T12:22:08.412Z,67.05
2018-10-18T12:24:36.722Z,67.22
2018-10-18T12:27:05.523Z,66.77
2018-10-18T12:29:33.931Z,67.23
2018-10-18T12:32:02.317Z,68.02
2018-10-18T12:34:30.559Z,69.15
2018-10-18T12:36:58.856Z,70.06
2018-10-18T12:39:27.191Z,70.12
2018-10-18T12:41:55.527Z,69.80
2018-10-18T12:44:23.800Z,70.00
2018-10-18T12:46:52.078Z,70.28
2018-10-18T12:49:20.413Z,69.79
2018-10-18T12:51:48.707Z,70.62
2018-10-18T12:54:17.083Z,70.27
2018-10-18T12:56:45.307Z,70.68
2018-10-18T12:59:13.734Z,70.74
2018-10-18T13:01:42.044Z,71.24
2018-10-18T13:04:10.363Z,72.40
2018-10-18T13:06:38.643Z,72.83
2018-10-18T13:09:09.247Z,72.60
2018-10-18T13:11:37.631Z,71.26
2018-10-18T13:14:06.213Z,71.61
2018-10-18T13:16:34.624Z,72.38
2018-10-18T13:19:02.951Z,72.39
2018-10-18T13:21:31.228Z,73.08
2018-10-18T13:23:59.554Z,72.87
2018-10-18T13:26:27.867Z,73.51
2018-10-18T13:28:56.210Z,72.85
2018-10-18T13:31:24.483Z,71.64
2018-10-18T13:33:52.821Z,70.72
2018-10-18T13:36:21.080Z,71.00
2018-10-18T13:38:49.392Z,70.81
2018-10-18T13:41:18.072Z,70.49
2018-10-18T13:43:46.376Z,71.87
2018-10-18T13:46:14.676Z,71.79
2018-10-18T13:48:43.342Z,71.26
2018-10-18T13:51:11.627Z,70.93
2018-10-18T13:53:42.072Z,71.14
2018-10-18T13:56:11.824Z,71.45
2018-10-18T13:58:40.175Z,72.45
2018-10-18T14:01:08.516Z,71.87
2018-10-18T14:03:39.435Z,72.42
2018-10-18T14:06:07.839Z,72.45
2018-10-18T14:08:36.216Z,73.01
2018-10-18T14:11:04.774Z,73.23
2018-10-18T14:13:33.031Z,73.28
2018-10-18T14:16:01.311Z,73.06
2018-10-18T14:18:29.620Z,71.91
2018-10-18T14:20:57.903Z,72.60
2018-10-18T14:23:26.208Z,70.89
2018-10-18T14:25:54.528Z,71.24
2018-10-18T14:28:22.783Z,70.85
2018-10-18T14:30:51.199Z,70.28
2018-10-18T14:33:19.391Z,69.91
2018-10-18T14:35:48.711Z,70.16
2018-10-18T14:38:17.020Z,69.82
2018-10-18T14:40:45.442Z,69.70
2018-10-18T14:43:13.743Z,68.28
2018-10-18T14:45:42.056Z,66.26
2018-10-18T14:48:10.380Z,64.62
2018-10-18T14:50:38.730Z,65.36
2018-10-18T14:53:07.055Z,63.84
2018-10-18T14:55:35.323Z,62.59
2018-10-18T14:58:03.888Z,64.24
2018-10-18T15:00:32.193Z,61.64
2018-10-18T15:03:00.531Z,62.93
2018-10-18T15:05:28.819Z,63.35
2018-10-18T15:07:57.768Z,64.04
2018-10-18T15:10:26.064Z,64.69
2018-10-18T15:12:54.360Z,65.98
2018-10-18T15:15:22.804Z,66.15
2018-10-18T15:17:51.074Z,66.92
2018-10-18T15:20:19.379Z,66.13
2018-10-18T15:22:47.669Z,66.81
2018-10-18T15:25:16.476Z,68.37
2018-10-18T15:27:44.821Z,68.72
2018-10-18T15:30:13.507Z,68.92
2018-10-18T15:32:41.788Z,70.48
2018-10-18T15:35:11.127Z,71.15
2018-10-18T15:37:39.928Z,71.61
2018-10-18T15:40:08.507Z,72.37
2018-10-18T15:42:36.799Z,73.50
2018-10-18T15:45:05.394Z,73.64
2018-10-18T15:47:33.727Z,74.36
2018-10-18T15:50:02.042Z,74.94
2018-10-18T15:52:30.311Z,74.79
2018-10-18T15:54:58.654Z,74.58
2018-10-18T15:57:26.915Z,74.63
2018-10-18T15:59:55.213Z,75.55
2018-10-18T16:02:23.495Z,76.37
2018-10-18T16:04:51.787Z,77.42
2018-10-18T16:07:20.066Z,77.66
2018-10-18T16:09:48.531Z,78.45
2018-10-18T16:12:16.810Z,79.21
2018-10-18T16:14:45.139Z,79.82
2018-10-18T16:17:13.499Z,79.95
2018-10-18T16:19:41.752Z,80.48
2018-10-18T16:22:10.019Z,80.79
2018-10-18T16:24:38.405Z,81.75
2018-10-18T16:27:06.730Z,81.62
2018-10-18T16:29:35.016Z,82.96
2018-10-18T16:32:03.420Z,83.13
2018-10-18T16:34:32.079Z,83.11
2018-10-18T16:37:00.620Z,84.36
2018-10-18T16:39:29.284Z,84.30
2018-10-18T16:41:57.674Z,85.44
2018-10-18T16:44:25.910Z,84.99
2018-10-18T16:46:54.226Z,85.44
2018-10-18T16:49:23.184Z,84.89
2018-10-18T16:51:52.214Z,85.68
2018-10-18T16:54:20.534Z,85.60
2018-10-18T16:56:48.828Z,85.87
2018-10-18T16:59:17.099Z,86.46
2018-10-18T17:01:45.396Z,86.10
2018-10-18T17:04:14.174Z,86.59
2018-10-18T17:06:42.605Z,85.88
2018-10-18T17:09:11.600Z,85.24
2018-10-18T17:11:39.955Z,84.39
2018-10-18T17:14:07.951Z,84.44
2018-10-18T17:16:36.271Z,84.06
2018-10-18T17:19:04.604Z,83.80
2018-10-18T17:21:32.917Z,83.91
2018-10-18T17:24:01.261Z,84.43
2018-10-18T17:26:29.592Z,84.25
2018-10-18T17:28:57.863Z,84.00
2018-10-18T17:31:26.251Z,84.97
2018-10-18T17:33:54.550Z,84.61
2018-10-18T17:36:22.835Z,83.88
2018-10-18T17:38:51.131Z,83.94
2018-10-18T17:41:19.433Z,84.01
2018-10-18T17:43:47.721Z,84.14
2018-10-18T17:46:16.083Z,84.52
2018-10-18T17:48:44.336Z,84.31
2018-10-18T17:51:12.735Z,84.11
2018-10-18T17:53:41.137Z,83.98
2018-10-18T17:56:09.810Z,84.53
2018-10-18T17:58:38.036Z,83.71
2018-10-18T18:01:08.661Z,83.77
2018-10-18T18:03:37.102Z,83.17
2018-10-18T18:06:05.822Z,83.71
2018-10-18T18:08:33.973Z,83.76
2018-10-18T18:11:02.481Z,83.56
2018-10-18T18:13:30.757Z,84.26
2018-10-18T18:15:59.095Z,84.36
2018-10-18T18:18:27.346Z,84.51
2018-10-18T18:20:55.683Z,84.05
2018-10-18T18:23:24.004Z,84.09
2018-10-18T18:25:52.372Z,83.56
2018-10-18T18:28:20.696Z,83.52
2018-10-18T18:30:49.029Z,83.26
2018-10-18T18:33:17.335Z,82.83
2018-10-18T18:35:45.664Z,82.01
2018-10-18T18:38:13.974Z,81.63
2018-10-18T18:40:42.298Z,81.40
2018-10-18T18:43:10.592Z,81.37
2018-10-18T18:45:38.980Z,81.77
2018-10-18T18:48:07.220Z,81.23
2018-10-18T18:50:35.583Z,81.09
2018-10-18T18:53:03.936Z,81.09
2018-10-18T18:55:32.220Z,81.00
2018-10-18T18:58:00.539Z,80.58
2018-10-18T19:00:28.829Z,80.18
2018-10-18T19:02:57.195Z,80.93
2018-10-18T19:05:25.451Z,81.08
2018-10-18T19:07:53.785Z,81.16
2018-10-18T19:10:22.131Z,82.40
2018-10-18T19:12:50.448Z,82.21
2018-10-18T19:15:18.754Z,82.59
2018-10-18T19:17:47.070Z,82.59
2018-10-18T19:20:15.368Z,82.84
2018-10-18T19:22:43.812Z,83.08
2018-10-18T19:25:12.420Z,83.61
2018-10-18T19:27:40.781Z,83.91
2018-10-18T19:30:10.263Z,84.16
2018-10-18T19:32:38.611Z,85.27
2018-10-18T19:35:06.916Z,85.53
2018-10-18T19:37:35.213Z,85.71
2018-10-18T19:40:03.532Z,86.30
2018-10-18T19:42:31.819Z,85.87
2018-10-18T19:45:00.124Z,86.34
2018-10-18T19:47:28.435Z,86.83
2018-10-18T19:49:56.723Z,87.14
2018-10-18T19:52:25.146Z,85.75
2018-10-18T19:54:53.281Z,86.00
2018-10-18T19:57:21.559Z,86.03
2018-10-18T19:59:49.832Z,85.16
2018-10-18T20:02:18.115Z,85.56
2018-10-18T20:04:46.387Z,84.89
2018-10-18T20:07:14.699Z,85.27
2018-10-18T20:09:43.076Z,85.33
2018-10-18T20:12:11.351Z,85.07
2018-10-18T20:14:39.643Z,85.45
2018-10-18T20:17:08.360Z,85.88
2018-10-18T20:19:36.638Z,85.83
2018-10-18T20:22:08.470Z,85.87
2018-10-18T20:24:36.757Z,86.69
2018-10-18T20:27:05.248Z,87.65
2018-10-18T20:29:33.520Z,87.96
2018-10-18T20:32:01.836Z,88.19
2018-10-18T20:34:30.115Z,87.27
2018-10-18T20:36:58.411Z,87.31
2018-10-18T20:39:26.679Z,87.42
2018-10-18T20:41:54.963Z,87.22
2018-10-18T20:44:23.259Z,86.69
2018-10-18T20:46:51.659Z,86.53
2018-10-18T20:49:19.951Z,85.94
2018-10-18T20:51:48.251Z,85.25
2018-10-18T20:54:16.523Z,84.60
2018-10-18T20:56:44.823Z,84.66
2018-10-18T20:59:13.131Z,83.98
2018-10-18T21:01:41.434Z,84.15
2018-10-18T21:04:09.716Z,84.24
2018-10-18T21:06:38.143Z,83.22
2018-10-18T21:09:08.075Z,83.00
2018-10-18T21:11:36.315Z,82.67
2018-10-18T21:14:04.680Z,82.37
2018-10-18T21:16:33.031Z,82.34
2018-10-18T21:19:01.348Z,82.52
2018-10-18T21:21:29.682Z,82.17
2018-10-18T21:23:58.052Z,82.39
2018-10-18T21:26:26.344Z,82.31
2018-10-18T21:28:54.770Z,82.17
2018-10-18T21:31:23.040Z,81.65
2018-10-18T21:33:51.529Z,81.87
2018-10-18T21:36:19.815Z,81.00
2018-10-18T21:38:48.156Z,80.01
2018-10-18T21:41:16.447Z,80.25
2018-10-18T21:43:44.756Z,80.66
2018-10-18T21:46:13.043Z,80.42
2018-10-18T21:48:42.109Z,81.45
2018-10-18T21:51:10.437Z,81.34
2018-10-18T21:53:38.698Z,81.27
2018-10-18T21:56:06.981Z,80.59
2018-10-18T21:58:35.315Z,81.03
2018-10-18T22:01:03.584Z,81.55
2018-10-18T22:03:31.895Z,81.90
2018-10-18T22:06:00.175Z,82.43
2018-10-18T22:08:28.466Z,82.49
2018-10-18T22:10:57.009Z,82.27
2018-10-18T22:13:25.303Z,82.28
2018-10-18T22:15:53.576Z,81.72
2018-10-18T22:18:21.875Z,82.10
2018-10-18T22:20:50.155Z,82.68
2018-10-18T22:23:18.440Z,82.48
2018-10-18T22:25:46.723Z,82.38
2018-10-18T22:28:15.023Z,82.19
2018-10-18T22:30:43.307Z,81.96
2018-10-18T22:33:11.663Z,82.23
2018-10-18T22:35:39.915Z,82.67
2018-10-18T22:38:08.191Z,82.21
2018-10-18T22:40:36.891Z,81.98
2018-10-18T22:43:05.680Z,81.61
2018-10-18T22:45:33.967Z,81.49
2018-10-18T22:48:02.227Z,81.72
2018-10-18T22:50:30.507Z,81.88
2018-10-18T22:52:58.827Z,81.57
2018-10-18T22:55:27.092Z,81.93
2018-10-18T22:57:55.350Z,81.82
2018-10-18T23:00:23.641Z,81.83
2018-10-18T23:02:51.943Z,81.95
2018-10-18T23:05:20.235Z,82.32
2018-10-18T23:07:48.515Z,81.76
2018-10-18T23:10:16.795Z,81.38
2018-10-18T23:12:45.055Z,81.47
2018-10-18T23:15:13.435Z,81.04
2018-10-18T23:17:41.671Z,81.69
2018-10-18T23:20:10.073Z,82.50
2018-10-18T23:22:38.351Z,82.10
2018-10-18T23:25:06.935Z,82.61
2018-10-18T23:27:35.219Z,82.69
2018-10-18T23:30:03.567Z,82.60
2018-10-18T23:32:31.830Z,82.87
2018-10-18T23:35:00.157Z,83.33
2018-10-18T23:37:28.524Z,83.72
2018-10-18T23:39:56.887Z,83.89
2018-10-18T23:42:25.155Z,84.03
2018-10-18T23:44:53.431Z,83.72
2018-10-18T23:47:21.751Z,84.30
2018-10-18T23:49:50.046Z,83.89
2018-10-18T23:52:18.326Z,84.18
2018-10-18T23:54:46.602Z,84.05
2018-10-18T23:57:14.929Z,84.43
2018-10-18T23:59:43.184Z,84.32
